createdAt,value
2022-10-17T00:00:06.699Z,16.14
2022-10-17T00:02:32.799Z,16.18
2022-10-17T00:04:58.922Z,16.14
2022-10-17T00:07:25.199Z,16.16
2022-10-17T00:09:51.505Z,16.16
2022-10-17T00:12:17.609Z,16.13
2022-10-17T00:14:43.699Z,16.16
2022-10-17T00:17:09.784Z,16.16
2022-10-17T00:19:35.882Z,16.15
2022-10-17T00:22:01.967Z,16.17
2022-10-17T00:24:28.050Z,16.15
2022-10-17T00:26:54.162Z,16.16
2022-10-17T00:29:20.266Z,16.17
2022-10-17T00:31:46.417Z,16.22
2022-10-17T00:34:12.569Z,16.23
2022-10-17T00:36:38.665Z,16.25
2022-10-17T00:39:04.753Z,16.25
2022-10-17T00:41:30.856Z,16.26
2022-10-17T00:43:56.957Z,16.28
2022-10-17T00:46:23.046Z,16.28
2022-10-17T00:48:49.169Z,16.28
2022-10-17T00:51:15.266Z,16.29
2022-10-17T00:53:41.347Z,16.31
2022-10-17T00:56:07.500Z,16.29
2022-10-17T00:58:33.599Z,16.31
2022-10-17T01:00:59.843Z,16.32
2022-10-17T01:03:26.053Z,16.32
2022-10-17T01:05:52.143Z,16.32
2022-10-17T01:08:18.241Z,16.33
2022-10-17T01:10:44.827Z,16.31
2022-10-17T01:13:10.919Z,16.31
2022-10-17T01:15:37.007Z,16.32
2022-10-17T01:18:03.109Z,16.34
2022-10-17T01:20:29.213Z,16.34
2022-10-17T01:22:55.291Z,16.33
2022-10-17T01:25:21.414Z,16.36
2022-10-17T01:27:47.508Z,16.34
2022-10-17T01:30:13.605Z,16.35
2022-10-17T01:32:39.725Z,16.35
2022-10-17T01:35:05.828Z,16.38
2022-10-17T01:37:31.927Z,16.39
2022-10-17T01:39:58.045Z,16.42
2022-10-17T01:42:24.163Z,16.39
2022-10-17T01:44:50.254Z,16.41
2022-10-17T01:47:16.355Z,16.41
2022-10-17T01:49:42.446Z,16.43
2022-10-17T01:52:08.542Z,16.42
2022-10-17T01:54:34.647Z,16.46
2022-10-17T01:57:00.727Z,16.45
2022-10-17T01:59:26.830Z,16.44
2022-10-17T02:01:53.064Z,16.45
2022-10-17T02:04:19.214Z,16.53
2022-10-17T02:06:45.315Z,16.47
2022-10-17T02:09:11.441Z,16.44
2022-10-17T02:11:37.530Z,16.45
2022-10-17T02:14:03.700Z,16.45
2022-10-17T02:16:30.336Z,16.45
2022-10-17T02:18:56.441Z,16.46
2022-10-17T02:21:22.537Z,16.45
2022-10-17T02:23:48.653Z,16.46
2022-10-17T02:26:14.746Z,16.43
2022-10-17T02:28:40.918Z,16.46
2022-10-17T02:31:07.060Z,16.43
2022-10-17T02:33:33.146Z,16.43
2022-10-17T02:35:59.245Z,16.46
2022-10-17T02:38:25.354Z,16.47
2022-10-17T02:40:51.446Z,16.47
2022-10-17T02:43:17.541Z,16.43
2022-10-17T02:45:43.651Z,16.42
2022-10-17T02:48:09.755Z,16.43
2022-10-17T02:50:35.839Z,16.46
2022-10-17T02:53:01.952Z,16.43
2022-10-17T02:55:28.052Z,16.41
2022-10-17T02:57:54.146Z,16.47
2022-10-17T03:00:20.251Z,16.44
2022-10-17T03:02:46.370Z,16.44
2022-10-17T03:05:12.457Z,16.42
2022-10-17T03:07:38.573Z,16.44
2022-10-17T03:10:04.668Z,16.39
2022-10-17T03:12:30.939Z,16.36
2022-10-17T03:14:57.251Z,16.35
2022-10-17T03:17:23.337Z,16.37
2022-10-17T03:19:49.430Z,16.39
2022-10-17T03:22:15.579Z,16.37
2022-10-17T03:24:41.686Z,16.36
2022-10-17T03:27:07.777Z,16.36
2022-10-17T03:29:33.888Z,16.37
2022-10-17T03:31:59.985Z,16.39
2022-10-17T03:34:26.073Z,16.37
2022-10-17T03:36:52.183Z,16.35
2022-10-17T03:39:18.281Z,16.36
2022-10-17T03:41:44.367Z,16.37
2022-10-17T03:44:10.464Z,16.40
2022-10-17T03:46:36.566Z,16.37
2022-10-17T03:49:02.656Z,16.36
2022-10-17T03:51:28.754Z,16.36
2022-10-17T03:53:54.850Z,16.35
2022-10-17T03:56:20.947Z,16.35
2022-10-17T03:58:47.039Z,16.37
2022-10-17T04:01:13.207Z,16.40
2022-10-17T04:03:39.375Z,16.37
2022-10-17T04:06:05.506Z,16.36
2022-10-17T04:08:31.604Z,16.37
2022-10-17T04:10:57.697Z,16.37
2022-10-17T04:13:23.818Z,16.37
2022-10-17T04:15:49.903Z,16.39
2022-10-17T04:18:16.007Z,16.36
2022-10-17T04:20:42.615Z,16.37
2022-10-17T04:23:08.696Z,16.43
2022-10-17T04:25:36.727Z,16.41
2022-10-17T04:28:03.494Z,16.43
2022-10-17T04:30:29.588Z,16.42
2022-10-17T04:32:55.674Z,16.46
2022-10-17T04:35:21.780Z,16.49
2022-10-17T04:37:47.886Z,16.51
2022-10-17T04:40:13.972Z,16.52
2022-10-17T04:42:40.056Z,16.56
2022-10-17T04:45:06.157Z,16.57
2022-10-17T04:47:32.254Z,16.58
2022-10-17T04:49:58.376Z,16.58
2022-10-17T04:52:24.476Z,16.61
2022-10-17T04:54:50.572Z,16.61
2022-10-17T04:57:16.681Z,16.60
2022-10-17T04:59:42.787Z,16.61
2022-10-17T05:02:08.905Z,16.65
2022-10-17T05:04:35.008Z,16.69
2022-10-17T05:07:01.102Z,16.67
2022-10-17T05:09:27.189Z,16.68
2022-10-17T05:11:53.315Z,16.68
2022-10-17T05:14:19.404Z,16.68
2022-10-17T05:16:45.491Z,16.68
2022-10-17T05:19:11.711Z,16.68
2022-10-17T05:21:37.847Z,16.67
2022-10-17T05:24:03.936Z,16.66
2022-10-17T05:26:30.101Z,16.67
2022-10-17T05:28:56.234Z,16.68
2022-10-17T05:31:22.365Z,16.69
2022-10-17T05:33:48.468Z,16.66
2022-10-17T05:36:14.591Z,16.67
2022-10-17T05:38:40.684Z,16.68
2022-10-17T05:41:06.786Z,16.66
2022-10-17T05:43:32.906Z,16.66
2022-10-17T05:45:59.034Z,16.64
2022-10-17T05:48:25.188Z,16.65
2022-10-17T05:50:51.286Z,16.63
2022-10-17T05:53:17.380Z,16.61
2022-10-17T05:55:43.508Z,16.63
2022-10-17T05:58:11.745Z,16.66
2022-10-17T06:00:43.867Z,16.65
2022-10-17T06:03:09.987Z,16.66
2022-10-17T06:05:36.067Z,16.69
2022-10-17T06:08:02.248Z,16.67
2022-10-17T06:10:28.423Z,16.66
2022-10-17T06:12:54.582Z,16.68
2022-10-17T06:15:20.679Z,16.69
2022-10-17T06:17:46.801Z,16.71
2022-10-17T06:20:12.986Z,16.72
2022-10-17T06:22:39.085Z,16.76
2022-10-17T06:25:05.187Z,16.77
2022-10-17T06:27:31.275Z,16.78
2022-10-17T06:29:57.383Z,16.80
2022-10-17T06:32:23.483Z,16.82
2022-10-17T06:34:49.607Z,16.84
2022-10-17T06:37:15.783Z,16.81
2022-10-17T06:39:41.892Z,16.83
2022-10-17T06:42:08.009Z,16.86
2022-10-17T06:44:34.093Z,16.87
2022-10-17T06:47:00.212Z,16.88
2022-10-17T06:49:26.295Z,16.88
2022-10-17T06:51:52.390Z,16.89
2022-10-17T06:54:18.562Z,16.91
2022-10-17T06:56:44.706Z,16.92
2022-10-17T06:59:10.799Z,16.94
2022-10-17T07:01:37.401Z,17.02
2022-10-17T07:04:03.603Z,16.98
2022-10-17T07:06:29.696Z,16.99
2022-10-17T07:08:55.958Z,17.01
2022-10-17T07:11:22.069Z,17.02
2022-10-17T07:13:48.163Z,17.10
2022-10-17T07:16:14.262Z,17.09
2022-10-17T07:18:40.352Z,17.16
2022-10-17T07:21:06.463Z,17.14
2022-10-17T07:23:32.590Z,17.15
2022-10-17T07:25:58.693Z,17.18
2022-10-17T07:28:24.843Z,17.17
2022-10-17T07:30:53.727Z,17.22
2022-10-17T07:33:20.692Z,17.23
2022-10-17T07:35:46.802Z,17.24
2022-10-17T07:38:12.918Z,17.29
2022-10-17T07:40:39.004Z,17.33
2022-10-17T07:43:05.100Z,17.34
2022-10-17T07:45:31.222Z,17.37
2022-10-17T07:47:57.320Z,17.46
2022-10-17T07:50:23.430Z,17.46
2022-10-17T07:52:49.536Z,17.45
2022-10-17T07:55:15.670Z,17.48
2022-10-17T07:57:41.759Z,17.52
2022-10-17T08:00:07.864Z,17.54
2022-10-17T08:02:33.941Z,17.56
2022-10-17T08:05:00.059Z,17.64
2022-10-17T08:07:29.280Z,17.63
2022-10-17T08:09:55.655Z,17.65
2022-10-17T08:12:21.792Z,17.70
2022-10-17T08:14:47.910Z,17.70
2022-10-17T08:17:13.997Z,17.74
2022-10-17T08:19:40.093Z,17.81
2022-10-17T08:22:06.559Z,17.83
2022-10-17T08:24:32.656Z,17.90
2022-10-17T08:26:58.769Z,17.91
2022-10-17T08:29:24.920Z,17.96
2022-10-17T08:31:54.115Z,17.98
2022-10-17T08:34:24.732Z,18.00
2022-10-17T08:36:51.380Z,18.02
2022-10-17T08:39:17.466Z,18.05
2022-10-17T08:41:43.567Z,18.12
2022-10-17T08:44:09.683Z,18.14
2022-10-17T08:46:35.816Z,18.21
2022-10-17T08:49:02.077Z,18.21
2022-10-17T08:51:28.191Z,18.26
2022-10-17T08:53:54.291Z,18.30
2022-10-17T08:56:25.155Z,18.35
2022-10-17T08:59:03.090Z,18.41
2022-10-17T09:01:29.192Z,18.44
2022-10-17T09:03:55.284Z,18.49
2022-10-17T09:06:21.394Z,18.57
2022-10-17T09:08:47.485Z,18.59
2022-10-17T09:11:13.590Z,18.74
2022-10-17T09:13:39.712Z,18.70
2022-10-17T09:16:05.809Z,18.79
2022-10-17T09:18:31.895Z,18.83
2022-10-17T09:20:58.011Z,18.87
2022-10-17T09:23:24.102Z,18.88
2022-10-17T09:25:50.253Z,18.89
2022-10-17T09:28:16.396Z,18.88
2022-10-17T09:30:46.462Z,18.97
2022-10-17T09:33:23.169Z,19.04
2022-10-17T09:35:58.962Z,19.12
2022-10-17T09:38:25.045Z,19.15
2022-10-17T09:40:56.144Z,19.18
2022-10-17T09:43:23.076Z,19.17
2022-10-17T09:45:49.159Z,19.27
2022-10-17T09:48:15.259Z,19.31
2022-10-17T09:50:41.368Z,19.36
2022-10-17T09:53:07.458Z,19.44
2022-10-17T09:55:33.566Z,19.53
2022-10-17T09:57:59.685Z,19.57
2022-10-17T10:00:25.866Z,19.65
2022-10-17T10:02:52.053Z,19.76
2022-10-17T10:05:18.148Z,19.84
2022-10-17T10:07:44.246Z,19.97
2022-10-17T10:10:10.363Z,20.07
2022-10-17T10:12:36.480Z,20.21
2022-10-17T10:15:02.567Z,20.28
2022-10-17T10:17:28.659Z,20.32
2022-10-17T10:19:54.773Z,20.29
2022-10-17T10:22:20.872Z,20.34
2022-10-17T10:24:46.958Z,20.39
2022-10-17T10:27:13.071Z,20.45
2022-10-17T10:29:39.153Z,20.38
2022-10-17T10:32:05.254Z,20.43
2022-10-17T10:34:31.387Z,20.45
2022-10-17T10:36:57.526Z,20.46
2022-10-17T10:39:23.617Z,20.45
2022-10-17T10:41:49.839Z,20.56
2022-10-17T10:44:15.940Z,20.53
2022-10-17T10:46:42.047Z,20.47
2022-10-17T10:49:08.313Z,20.52
2022-10-17T10:51:34.395Z,20.53
2022-10-17T10:54:00.495Z,20.61
2022-10-17T10:56:26.618Z,20.59
2022-10-17T10:58:52.724Z,20.58
2022-10-17T11:01:18.939Z,20.66
2022-10-17T11:03:45.098Z,20.69
2022-10-17T11:06:11.197Z,20.59
2022-10-17T11:08:37.276Z,20.64
2022-10-17T11:11:03.390Z,20.56
2022-10-17T11:13:29.489Z,20.57
2022-10-17T11:15:55.577Z,20.55
2022-10-17T11:18:21.687Z,20.48
2022-10-17T11:20:47.776Z,20.45
2022-10-17T11:23:13.865Z,20.43
2022-10-17T11:25:39.966Z,20.44
2022-10-17T11:28:06.067Z,20.50
2022-10-17T11:30:32.197Z,20.53
2022-10-17T11:32:58.346Z,20.55
2022-10-17T11:35:24.455Z,20.43
2022-10-17T11:37:50.551Z,20.57
2022-10-17T11:40:19.216Z,20.61
2022-10-17T11:42:48.144Z,20.47
2022-10-17T11:45:14.232Z,20.46
2022-10-17T11:47:40.694Z,20.49
2022-10-17T11:52:56.442Z,20.51
2022-10-17T11:55:23.148Z,20.58
2022-10-17T11:57:49.244Z,20.51
2022-10-17T12:00:15.506Z,20.44
2022-10-17T12:02:41.621Z,20.37
2022-10-17T12:05:07.730Z,20.42
2022-10-17T12:07:34.365Z,20.43
2022-10-17T12:10:00.606Z,20.41
2022-10-17T12:12:27.081Z,20.36
2022-10-17T12:14:53.456Z,20.39
2022-10-17T12:17:19.552Z,20.41
2022-10-17T12:19:45.655Z,20.35
2022-10-17T12:22:12.058Z,20.28
2022-10-17T12:24:38.176Z,20.36
2022-10-17T12:27:04.268Z,20.38
2022-10-17T12:29:30.377Z,20.45
2022-10-17T12:31:57.085Z,20.51
2022-10-17T12:34:23.171Z,20.46
2022-10-17T12:36:49.567Z,20.47
2022-10-17T12:39:15.662Z,20.50
2022-10-17T12:41:41.765Z,20.58
2022-10-17T12:44:07.861Z,20.55
2022-10-17T12:46:33.963Z,20.57
2022-10-17T12:49:00.067Z,20.68
2022-10-17T12:51:41.455Z,20.70
2022-10-17T12:54:07.554Z,20.66
2022-10-17T12:56:33.684Z,20.79
2022-10-17T12:58:59.794Z,20.73
2022-10-17T13:01:26.087Z,20.69
2022-10-17T13:03:52.290Z,20.74
2022-10-17T13:06:18.408Z,20.69
2022-10-17T13:08:44.505Z,20.72
2022-10-17T13:11:10.621Z,20.74
2022-10-17T13:13:36.727Z,20.70
2022-10-17T13:16:02.832Z,20.80
2022-10-17T13:18:28.926Z,20.84
2022-10-17T13:20:55.015Z,20.78
2022-10-17T13:23:21.100Z,20.78
2022-10-17T13:25:47.205Z,20.76
2022-10-17T13:28:13.289Z,20.88
2022-10-17T13:30:39.385Z,20.92
2022-10-17T13:33:05.488Z,20.90
2022-10-17T13:35:55.357Z,20.74
2022-10-17T13:40:50.488Z,20.64
2022-10-17T13:43:16.857Z,20.58
2022-10-17T13:45:43.007Z,20.55
2022-10-17T13:48:09.104Z,20.50
2022-10-17T13:50:44.280Z,20.40
2022-10-17T13:53:11.080Z,20.39
2022-10-17T13:55:37.169Z,20.34
2022-10-17T13:58:03.267Z,20.29
2022-10-17T14:00:29.412Z,20.28
2022-10-17T14:02:55.508Z,20.32
2022-10-17T14:05:21.608Z,20.25
2022-10-17T14:08:10.094Z,20.22
2022-10-17T14:10:33.849Z,20.23
2022-10-17T14:12:59.964Z,20.24
2022-10-17T14:15:26.063Z,20.21
2022-10-17T14:17:52.159Z,20.17
2022-10-17T14:23:22.086Z,20.11
2022-10-17T14:25:49.174Z,20.02
2022-10-17T14:28:15.297Z,20.03
2022-10-17T14:30:57.763Z,20.07
2022-10-17T14:33:24.085Z,20.05
2022-10-17T14:35:50.183Z,20.03
2022-10-17T14:38:16.274Z,20.04
2022-10-17T14:40:42.399Z,20.02
2022-10-17T14:43:08.561Z,20.06
2022-10-17T14:45:34.664Z,20.10
2022-10-17T14:48:01.137Z,20.15
2022-10-17T14:50:27.233Z,20.15
2022-10-17T14:52:53.337Z,20.19
2022-10-17T14:55:19.947Z,20.13
2022-10-17T14:57:46.057Z,20.08
2022-10-17T15:00:12.232Z,20.05
2022-10-17T15:02:38.402Z,20.05
2022-10-17T15:05:07.315Z,19.98
2022-10-17T15:07:35.611Z,19.97
2022-10-17T15:10:01.729Z,19.95
2022-10-17T15:12:28.070Z,19.86
2022-10-17T15:14:54.416Z,19.86
2022-10-17T15:17:20.527Z,19.82
2022-10-17T15:19:46.686Z,19.78
2022-10-17T15:22:12.770Z,19.73
2022-10-17T15:24:38.890Z,19.73
2022-10-17T15:27:04.977Z,19.68
2022-10-17T15:29:31.133Z,19.66
2022-10-17T15:31:57.231Z,19.63
2022-10-17T15:34:23.328Z,19.69
2022-10-17T15:36:49.453Z,19.65
2022-10-17T15:39:15.570Z,19.65
2022-10-17T15:41:41.677Z,19.70
2022-10-17T15:44:07.768Z,19.59
2022-10-17T15:46:33.925Z,19.59
2022-10-17T15:49:00.034Z,19.56
2022-10-17T15:51:26.132Z,19.54
2022-10-17T15:53:52.241Z,19.51
2022-10-17T15:56:18.335Z,19.46
2022-10-17T15:58:44.431Z,19.42
2022-10-17T16:01:10.658Z,19.41
2022-10-17T16:03:36.760Z,19.35
2022-10-17T16:06:02.866Z,19.37
2022-10-17T16:08:28.987Z,19.40
2022-10-17T16:10:55.099Z,19.33
2022-10-17T16:13:21.197Z,19.23
2022-10-17T16:15:47.318Z,19.22
2022-10-17T16:18:13.419Z,19.17
2022-10-17T16:20:39.522Z,19.11
2022-10-17T16:23:05.655Z,19.07
2022-10-17T16:25:31.745Z,19.03
2022-10-17T16:27:57.837Z,18.92
2022-10-17T16:30:23.981Z,18.86
2022-10-17T16:32:50.067Z,18.83
2022-10-17T16:35:16.152Z,18.80
2022-10-17T16:37:42.271Z,18.76
2022-10-17T16:40:08.361Z,18.69
2022-10-17T16:42:34.461Z,18.67
2022-10-17T16:45:00.574Z,18.69
2022-10-17T16:47:26.662Z,18.68
2022-10-17T16:49:52.769Z,18.66
2022-10-17T16:52:18.871Z,18.62
2022-10-17T16:54:44.978Z,18.58
2022-10-17T16:57:11.069Z,18.53
2022-10-17T16:59:37.176Z,18.50
2022-10-17T17:02:03.295Z,18.42
2022-10-17T17:04:29.387Z,18.37
2022-10-17T17:06:55.545Z,17.91
2022-10-17T17:09:21.646Z,17.89
2022-10-17T17:11:47.742Z,17.90
2022-10-17T17:14:13.837Z,17.71
2022-10-17T17:16:39.916Z,17.76
2022-10-17T17:19:06.027Z,17.66
2022-10-17T17:21:32.132Z,17.67
2022-10-17T17:23:58.240Z,17.62
2022-10-17T17:26:24.338Z,17.63
2022-10-17T17:28:50.481Z,17.63
2022-10-17T17:31:19.505Z,17.56
2022-10-17T17:33:45.651Z,17.54
2022-10-17T17:36:11.810Z,17.51
2022-10-17T17:38:37.891Z,17.52
2022-10-17T17:41:04.003Z,17.53
2022-10-17T17:43:30.133Z,17.51
2022-10-17T17:45:56.221Z,17.46
2022-10-17T17:48:22.307Z,17.42
2022-10-17T17:50:49.449Z,17.37
2022-10-17T17:53:15.524Z,17.31
2022-10-17T17:55:41.645Z,17.27
2022-10-17T17:58:07.771Z,17.30
2022-10-17T18:00:33.892Z,17.29
2022-10-17T18:02:59.986Z,17.26
2022-10-17T18:05:26.094Z,17.19
2022-10-17T18:07:52.187Z,17.20
2022-10-17T18:10:18.402Z,17.16
2022-10-17T18:12:44.527Z,17.16
2022-10-17T18:15:10.671Z,17.14
2022-10-17T18:17:36.764Z,17.11
2022-10-17T18:20:02.877Z,17.14
2022-10-17T18:22:29.194Z,17.07
2022-10-17T18:24:55.557Z,17.08
2022-10-17T18:27:21.695Z,17.07
2022-10-17T18:29:47.802Z,17.12
2022-10-17T18:32:13.910Z,17.10
2022-10-17T18:34:40.021Z,17.07
2022-10-17T18:37:06.172Z,17.06
2022-10-17T18:39:32.255Z,17.02
2022-10-17T18:41:58.394Z,17.00
2022-10-17T18:44:24.492Z,17.01
2022-10-17T18:46:50.596Z,17.03
2022-10-17T18:49:16.713Z,17.02
2022-10-17T18:51:42.796Z,16.99
2022-10-17T18:54:08.877Z,16.96
2022-10-17T18:56:35.001Z,16.96
2022-10-17T18:59:01.103Z,16.94
2022-10-17T19:01:27.286Z,16.96
2022-10-17T19:03:53.425Z,16.97
2022-10-17T19:06:19.517Z,16.88
2022-10-17T19:08:45.617Z,16.93
2022-10-17T19:11:12.252Z,16.91
2022-10-17T19:13:38.373Z,16.90
2022-10-17T19:16:04.524Z,16.82
2022-10-17T19:18:30.653Z,16.78
2022-10-17T19:20:56.741Z,16.76
2022-10-17T19:23:22.846Z,16.78
2022-10-17T19:25:48.962Z,16.78
2022-10-17T19:28:15.060Z,16.74
2022-10-17T19:30:41.151Z,16.72
2022-10-17T19:33:07.286Z,16.72
2022-10-17T19:35:33.390Z,16.74
2022-10-17T19:37:59.491Z,16.71
2022-10-17T19:40:25.602Z,16.72
2022-10-17T19:42:51.684Z,16.69
2022-10-17T19:45:17.784Z,16.61
2022-10-17T19:47:43.902Z,16.62
2022-10-17T19:50:09.985Z,16.65
2022-10-17T19:52:36.098Z,16.57
2022-10-17T19:55:02.290Z,16.57
2022-10-17T19:57:28.407Z,16.58
2022-10-17T19:59:56.035Z,16.54
2022-10-17T20:02:22.359Z,16.52
2022-10-17T20:04:54.480Z,16.53
2022-10-17T20:07:26.174Z,16.49
2022-10-17T20:09:52.262Z,16.45
2022-10-17T20:12:18.371Z,16.39
2022-10-17T20:14:44.773Z,16.37
2022-10-17T20:17:10.862Z,16.41
2022-10-17T20:19:36.940Z,16.40
2022-10-17T20:22:03.072Z,16.37
2022-10-17T20:24:29.165Z,16.31
2022-10-17T20:26:55.249Z,16.32
2022-10-17T20:29:21.365Z,16.31
2022-10-17T20:31:47.461Z,16.34
2022-10-17T20:34:13.562Z,16.29
2022-10-17T20:36:39.683Z,16.29
2022-10-17T20:39:05.789Z,16.30
2022-10-17T20:41:31.894Z,16.27
2022-10-17T20:43:57.998Z,16.25
2022-10-17T20:46:36.263Z,16.28
2022-10-17T20:49:03.243Z,16.24
2022-10-17T20:51:29.350Z,16.25
2022-10-17T20:56:26.989Z,16.18
2022-10-17T20:58:53.072Z,16.11
2022-10-17T21:01:19.214Z,16.14
2022-10-17T21:03:46.632Z,16.08
2022-10-17T21:06:12.916Z,16.12
2022-10-17T21:08:39.002Z,16.10
2022-10-17T21:11:05.115Z,16.13
2022-10-17T21:13:31.211Z,16.11
2022-10-17T21:15:57.302Z,16.12
2022-10-17T21:18:23.476Z,16.04
2022-10-17T21:20:49.572Z,16.03
2022-10-17T21:23:15.671Z,16.04
2022-10-17T21:25:41.777Z,16.06
2022-10-17T21:28:07.877Z,16.02
2022-10-17T21:30:33.975Z,16.08
2022-10-17T21:33:00.117Z,16.01
2022-10-17T21:35:26.226Z,15.97
2022-10-17T21:37:52.303Z,15.88
2022-10-17T21:40:18.441Z,15.84
2022-10-17T21:42:44.556Z,15.81
2022-10-17T21:45:15.712Z,15.81
2022-10-17T21:48:11.154Z,15.82
2022-10-17T21:50:32.321Z,15.81
2022-10-17T21:52:58.431Z,15.79
2022-10-17T21:55:24.530Z,15.82
2022-10-17T21:57:50.622Z,15.82
2022-10-17T22:00:16.726Z,15.81
2022-10-17T22:02:42.848Z,15.84
2022-10-17T22:05:08.940Z,15.82
2022-10-17T22:07:35.061Z,15.83
2022-10-17T22:10:01.147Z,15.80
2022-10-17T22:12:27.329Z,15.83
2022-10-17T22:14:53.546Z,15.77
2022-10-17T22:17:19.654Z,15.83
2022-10-17T22:19:45.765Z,15.73
2022-10-17T22:22:11.895Z,15.78
2022-10-17T22:24:38.038Z,15.84
2022-10-17T22:27:04.126Z,15.87
2022-10-17T22:29:30.240Z,15.86
2022-10-17T22:31:56.333Z,15.84
2022-10-17T22:34:22.417Z,15.90
2022-10-17T22:36:48.541Z,15.96
2022-10-17T22:39:14.632Z,15.91
2022-10-17T22:41:40.719Z,15.93
2022-10-17T22:44:06.834Z,15.92
2022-10-17T22:46:32.932Z,15.88
2022-10-17T22:48:59.020Z,15.91
2022-10-17T22:51:25.169Z,15.87
2022-10-17T22:53:51.270Z,15.81
2022-10-17T22:56:17.349Z,15.85
2022-10-17T22:58:43.982Z,15.89
2022-10-17T23:01:10.265Z,15.86
2022-10-17T23:03:36.398Z,15.85
2022-10-17T23:06:02.522Z,15.84
2022-10-17T23:08:28.630Z,15.87
2022-10-17T23:10:54.744Z,15.85
2022-10-17T23:13:20.850Z,15.88
2022-10-17T23:15:46.940Z,15.84
2022-10-17T23:18:13.029Z,15.86
2022-10-17T23:20:39.493Z,15.90
2022-10-17T23:23:05.601Z,15.93
2022-10-17T23:25:31.713Z,15.90
2022-10-17T23:27:57.834Z,15.92
2022-10-17T23:30:23.925Z,15.91
2022-10-17T23:32:50.024Z,15.91
2022-10-17T23:35:16.137Z,15.97
2022-10-17T23:37:42.239Z,15.91
2022-10-17T23:40:08.338Z,15.90
2022-10-17T23:42:34.449Z,15.87
2022-10-17T23:45:00.559Z,15.92
2022-10-17T23:47:26.687Z,15.88
2022-10-17T23:49:52.797Z,15.88
2022-10-17T23:52:18.895Z,15.85
2022-10-17T23:54:45.005Z,15.89
2022-10-17T23:57:11.113Z,15.94
2022-10-17T23:59:37.269Z,15.96
